Ana Sayfa
METAR-TAF:

METAR-TAF

Havaalanları :

Kaiser Lake Ozark, Missouri, Amerika Birleşik Devletleri

Enlem: 38-06N, Boylam: 092-33W, yükseklik: 265 m

Güncel hava durumu gözlemi

Rapor saat 14:56 UTC de 1 saat ve 1 dakika önce yapıldı.
Rüzgar batıdan 3 kt
Sıcaklık 24°C
Nem 69%
Basınç 1013 hPa
Görüş mesafesi: 16.1 km
Açık gökyüzü

METAR: KAIZ 181456Z AUTO 28003KT 10SM CLR 24/18 A2990 RMK AO2 SLP117 6//// T02390178 51013 PNO $

Saat: 10:57 (15:57 UTC)


TAF: eksik

4.000'den fazla havaalanı için hava durumu gözlemleri ve tahminleri (METAR ve TAF raporları).

Kullanılabilir istasyonlar harita üzerinde sarı ve kırmızı noktalarla gösterilir.

İstasyonun adını görmek için fareyi noktanın üzerinde gezdirin.

Sonrasında hava gözlem ve tahminlerini görmek için tıklayın.

Haritayı değiştirmek için: yaklaştırmak için siyah artı işaretli yeşil düğmeye ve uzaklaştırmak için de eksi işaretli düğmeye hızla tıklayın; bitişik haritalar için yeşil okları kullanın.


METAR-TAF: